<?xml version="1.0" encoding="UTF-8" standalone="no" ?>
<gpx xmlns="http://www.topografix.com/GPX/1/1" xmlns:xsi="http://www.w3.org/2001/XMLSchema-instance" xsi:schemaLocation="http://www.topografix.com/GPX/1/1 http://www.topografix.com/GPX/1/1/gpx.xsd" version="1.1" creator="VisuGPX - https://www.visugpx.com">
  <metadata>
    <name>Quartier du Port de Clermont</name>
  </metadata>
  <wpt lat="45.77812" lon="3.08578">
    <ele>414</ele>
    <name><![CDATA[Place de la Victoire]]></name>
  </wpt>
  <wpt lat="45.78036" lon="3.08826">
    <ele>397</ele>
    <name><![CDATA[Rue Barrier]]></name>
  </wpt>
  <wpt lat="45.77987" lon="3.09082">
    <ele>387</ele>
    <name><![CDATA[Place Delille]]></name>
  </wpt>
  <wpt lat="45.77849" lon="3.08753">
    <ele>410</ele>
    <name><![CDATA[Place du Terrail]]></name>
  </wpt>
  <wpt lat="45.77812" lon="3.08577">
    <ele>414</ele>
    <name><![CDATA[Place de la Victoire]]></name>
  </wpt>
  <trk>
    <name><![CDATA[Quartier du Port de Clermont]]></name>
    <trkseg>
      <trkpt lat="45.77812" lon="3.08578">
        <ele>414</ele>
        <time>2021-07-29T17:14:05+02:00</time>
      </trkpt>
      <trkpt lat="45.77816" lon="3.08597">
        <ele>415</ele>
        <time>2021-07-29T17:14:10+02:00</time>
      </trkpt>
      <trkpt lat="45.77848" lon="3.08595">
        <ele>414</ele>
        <time>2021-07-29T17:14:15+02:00</time>
      </trkpt>
      <trkpt lat="45.7785" lon="3.08624">
        <ele>414</ele>
        <time>2021-07-29T17:14:20+02:00</time>
      </trkpt>
      <trkpt lat="45.7785" lon="3.08642">
        <ele>414</ele>
        <time>2021-07-29T17:14:25+02:00</time>
      </trkpt>
      <trkpt lat="45.77849" lon="3.0866">
        <ele>415</ele>
        <time>2021-07-29T17:14:30+02:00</time>
      </trkpt>
      <trkpt lat="45.77849" lon="3.08684">
        <ele>414</ele>
        <time>2021-07-29T17:14:35+02:00</time>
      </trkpt>
      <trkpt lat="45.7786" lon="3.08687">
        <ele>413</ele>
        <time>2021-07-29T17:14:40+02:00</time>
      </trkpt>
      <trkpt lat="45.77868" lon="3.08675">
        <ele>413</ele>
        <time>2021-07-29T17:14:45+02:00</time>
      </trkpt>
      <trkpt lat="45.77869" lon="3.08646">
        <ele>413</ele>
        <time>2021-07-29T17:14:50+02:00</time>
      </trkpt>
      <trkpt lat="45.77883" lon="3.0864">
        <ele>413</ele>
        <time>2021-07-29T17:14:55+02:00</time>
      </trkpt>
      <trkpt lat="45.77891" lon="3.08626">
        <ele>412</ele>
        <time>2021-07-29T17:15:00+02:00</time>
      </trkpt>
      <trkpt lat="45.77895" lon="3.08593">
        <ele>412</ele>
        <time>2021-07-29T17:15:05+02:00</time>
      </trkpt>
      <trkpt lat="45.77914" lon="3.08596">
        <ele>412</ele>
        <time>2021-07-29T17:15:10+02:00</time>
      </trkpt>
      <trkpt lat="45.7793" lon="3.08604">
        <ele>410</ele>
        <time>2021-07-29T17:15:15+02:00</time>
      </trkpt>
      <trkpt lat="45.77955" lon="3.08609">
        <ele>409</ele>
        <time>2021-07-29T17:15:20+02:00</time>
      </trkpt>
      <trkpt lat="45.77977" lon="3.08607">
        <ele>407</ele>
        <time>2021-07-29T17:15:25+02:00</time>
      </trkpt>
      <trkpt lat="45.78005" lon="3.08612">
        <ele>405</ele>
        <time>2021-07-29T17:15:30+02:00</time>
      </trkpt>
      <trkpt lat="45.78002" lon="3.08645">
        <ele>406</ele>
        <time>2021-07-29T17:15:35+02:00</time>
      </trkpt>
      <trkpt lat="45.78007" lon="3.08666">
        <ele>405</ele>
        <time>2021-07-29T17:15:40+02:00</time>
      </trkpt>
      <trkpt lat="45.78023" lon="3.08703">
        <ele>403</ele>
        <time>2021-07-29T17:15:45+02:00</time>
      </trkpt>
      <trkpt lat="45.78031" lon="3.08745">
        <ele>402</ele>
        <time>2021-07-29T17:15:50+02:00</time>
      </trkpt>
      <trkpt lat="45.78032" lon="3.08789">
        <ele>399</ele>
        <time>2021-07-29T17:15:55+02:00</time>
      </trkpt>
      <trkpt lat="45.78034" lon="3.08811">
        <ele>398</ele>
        <time>2021-07-29T17:16:00+02:00</time>
      </trkpt>
      <trkpt lat="45.78036" lon="3.08826">
        <ele>397</ele>
        <time>2021-07-29T17:16:05+02:00</time>
      </trkpt>
      <trkpt lat="45.78045" lon="3.08826">
        <ele>397</ele>
        <time>2021-07-29T17:16:10+02:00</time>
      </trkpt>
      <trkpt lat="45.78067" lon="3.08833">
        <ele>395</ele>
        <time>2021-07-29T17:16:15+02:00</time>
      </trkpt>
      <trkpt lat="45.78102" lon="3.08837">
        <ele>391</ele>
        <time>2021-07-29T17:16:20+02:00</time>
      </trkpt>
      <trkpt lat="45.78102" lon="3.08874">
        <ele>389</ele>
        <time>2021-07-29T17:16:25+02:00</time>
      </trkpt>
      <trkpt lat="45.78087" lon="3.08911">
        <ele>390</ele>
        <time>2021-07-29T17:16:30+02:00</time>
      </trkpt>
      <trkpt lat="45.78081" lon="3.08929">
        <ele>389</ele>
        <time>2021-07-29T17:16:35+02:00</time>
      </trkpt>
      <trkpt lat="45.78062" lon="3.08911">
        <ele>391</ele>
        <time>2021-07-29T17:16:40+02:00</time>
      </trkpt>
      <trkpt lat="45.78081" lon="3.08929">
        <ele>389</ele>
        <time>2021-07-29T17:16:45+02:00</time>
      </trkpt>
      <trkpt lat="45.78112" lon="3.08931">
        <ele>385</ele>
        <time>2021-07-29T17:16:50+02:00</time>
      </trkpt>
      <trkpt lat="45.78106" lon="3.09006">
        <ele>381</ele>
        <time>2021-07-29T17:16:55+02:00</time>
      </trkpt>
      <trkpt lat="45.78056" lon="3.09002">
        <ele>386</ele>
        <time>2021-07-29T17:17:00+02:00</time>
      </trkpt>
      <trkpt lat="45.78054" lon="3.08945">
        <ele>389</ele>
        <time>2021-07-29T17:17:05+02:00</time>
      </trkpt>
      <trkpt lat="45.7807" lon="3.0895">
        <ele>388</ele>
        <time>2021-07-29T17:17:10+02:00</time>
      </trkpt>
      <trkpt lat="45.78054" lon="3.08945">
        <ele>389</ele>
        <time>2021-07-29T17:17:15+02:00</time>
      </trkpt>
      <trkpt lat="45.78043" lon="3.08964">
        <ele>389</ele>
        <time>2021-07-29T17:17:20+02:00</time>
      </trkpt>
      <trkpt lat="45.78035" lon="3.08963">
        <ele>389</ele>
        <time>2021-07-29T17:17:25+02:00</time>
      </trkpt>
      <trkpt lat="45.78033" lon="3.09003">
        <ele>388</ele>
        <time>2021-07-29T17:17:30+02:00</time>
      </trkpt>
      <trkpt lat="45.77984" lon="3.09008">
        <ele>390</ele>
        <time>2021-07-29T17:17:35+02:00</time>
      </trkpt>
      <trkpt lat="45.77991" lon="3.09039">
        <ele>389</ele>
        <time>2021-07-29T17:17:40+02:00</time>
      </trkpt>
      <trkpt lat="45.77987" lon="3.09082">
        <ele>387</ele>
        <time>2021-07-29T17:17:45+02:00</time>
      </trkpt>
      <trkpt lat="45.78013" lon="3.09098">
        <ele>386</ele>
        <time>2021-07-29T17:17:50+02:00</time>
      </trkpt>
      <trkpt lat="45.78035" lon="3.09095">
        <ele>385</ele>
        <time>2021-07-29T17:17:55+02:00</time>
      </trkpt>
      <trkpt lat="45.78063" lon="3.0909">
        <ele>383</ele>
        <time>2021-07-29T17:18:00+02:00</time>
      </trkpt>
      <trkpt lat="45.78097" lon="3.09086">
        <ele>380</ele>
        <time>2021-07-29T17:18:05+02:00</time>
      </trkpt>
      <trkpt lat="45.78062" lon="3.09091">
        <ele>383</ele>
        <time>2021-07-29T17:18:10+02:00</time>
      </trkpt>
      <trkpt lat="45.78035" lon="3.09096">
        <ele>385</ele>
        <time>2021-07-29T17:18:15+02:00</time>
      </trkpt>
      <trkpt lat="45.78033" lon="3.09046">
        <ele>386</ele>
        <time>2021-07-29T17:18:20+02:00</time>
      </trkpt>
      <trkpt lat="45.78032" lon="3.09003">
        <ele>388</ele>
        <time>2021-07-29T17:18:25+02:00</time>
      </trkpt>
      <trkpt lat="45.78033" lon="3.08962">
        <ele>390</ele>
        <time>2021-07-29T17:18:30+02:00</time>
      </trkpt>
      <trkpt lat="45.78033" lon="3.0893">
        <ele>391</ele>
        <time>2021-07-29T17:18:35+02:00</time>
      </trkpt>
      <trkpt lat="45.78034" lon="3.08881">
        <ele>394</ele>
        <time>2021-07-29T17:18:40+02:00</time>
      </trkpt>
      <trkpt lat="45.7803" lon="3.08825">
        <ele>398</ele>
        <time>2021-07-29T17:18:45+02:00</time>
      </trkpt>
      <trkpt lat="45.78029" lon="3.08811">
        <ele>398</ele>
        <time>2021-07-29T17:18:50+02:00</time>
      </trkpt>
      <trkpt lat="45.78005" lon="3.08809">
        <ele>400</ele>
        <time>2021-07-29T17:18:55+02:00</time>
      </trkpt>
      <trkpt lat="45.7799" lon="3.08802">
        <ele>401</ele>
        <time>2021-07-29T17:19:00+02:00</time>
      </trkpt>
      <trkpt lat="45.77989" lon="3.08766">
        <ele>403</ele>
        <time>2021-07-29T17:19:05+02:00</time>
      </trkpt>
      <trkpt lat="45.77988" lon="3.08803">
        <ele>401</ele>
        <time>2021-07-29T17:19:10+02:00</time>
      </trkpt>
      <trkpt lat="45.77977" lon="3.08804">
        <ele>401</ele>
        <time>2021-07-29T17:19:15+02:00</time>
      </trkpt>
      <trkpt lat="45.7796" lon="3.08802">
        <ele>401</ele>
        <time>2021-07-29T17:19:20+02:00</time>
      </trkpt>
      <trkpt lat="45.77926" lon="3.08808">
        <ele>402</ele>
        <time>2021-07-29T17:19:25+02:00</time>
      </trkpt>
      <trkpt lat="45.77898" lon="3.08804">
        <ele>403</ele>
        <time>2021-07-29T17:19:30+02:00</time>
      </trkpt>
      <trkpt lat="45.7788" lon="3.08787">
        <ele>405</ele>
        <time>2021-07-29T17:19:35+02:00</time>
      </trkpt>
      <trkpt lat="45.77864" lon="3.08771">
        <ele>407</ele>
        <time>2021-07-29T17:19:40+02:00</time>
      </trkpt>
      <trkpt lat="45.77852" lon="3.08793">
        <ele>406</ele>
        <time>2021-07-29T17:19:45+02:00</time>
      </trkpt>
      <trkpt lat="45.77864" lon="3.08771">
        <ele>408</ele>
        <time>2021-07-29T17:19:50+02:00</time>
      </trkpt>
      <trkpt lat="45.77849" lon="3.08753">
        <ele>410</ele>
        <time>2021-07-29T17:19:55+02:00</time>
      </trkpt>
      <trkpt lat="45.77829" lon="3.08744">
        <ele>411</ele>
        <time>2021-07-29T17:20:00+02:00</time>
      </trkpt>
      <trkpt lat="45.77796" lon="3.08735">
        <ele>412</ele>
        <time>2021-07-29T17:20:05+02:00</time>
      </trkpt>
      <trkpt lat="45.77785" lon="3.08726">
        <ele>412</ele>
        <time>2021-07-29T17:20:10+02:00</time>
      </trkpt>
      <trkpt lat="45.77754" lon="3.087">
        <ele>414</ele>
        <time>2021-07-29T17:20:15+02:00</time>
      </trkpt>
      <trkpt lat="45.77756" lon="3.08686">
        <ele>415</ele>
        <time>2021-07-29T17:20:20+02:00</time>
      </trkpt>
      <trkpt lat="45.77752" lon="3.08654">
        <ele>416</ele>
        <time>2021-07-29T17:20:25+02:00</time>
      </trkpt>
      <trkpt lat="45.77761" lon="3.08628">
        <ele>416</ele>
        <time>2021-07-29T17:20:30+02:00</time>
      </trkpt>
      <trkpt lat="45.77759" lon="3.08602">
        <ele>416</ele>
        <time>2021-07-29T17:20:35+02:00</time>
      </trkpt>
      <trkpt lat="45.77769" lon="3.08609">
        <ele>416</ele>
        <time>2021-07-29T17:20:40+02:00</time>
      </trkpt>
      <trkpt lat="45.77802" lon="3.08603">
        <ele>415</ele>
        <time>2021-07-29T17:20:45+02:00</time>
      </trkpt>
      <trkpt lat="45.77812" lon="3.08577">
        <ele>414</ele>
        <time>2021-07-29T17:20:50+02:00</time>
      </trkpt>
    </trkseg>
  </trk>
</gpx>